sensor_id;sensor_type;location;lat;lon;timestamp;pressure;altitude;pressure_sealevel;temperature
49557;BMP280;35462;45.048;7.666;2023-02-01T00:02:57;99353.41;;;9.09
49557;BMP280;35462;45.048;7.666;2023-02-01T00:18:12;99344.34;;;9.03
49557;BMP280;35462;45.048;7.666;2023-02-01T00:33:30;99338.25;;;8.92
49557;BMP280;35462;45.048;7.666;2023-02-01T00:48:46;99315.63;;;8.84
49557;BMP280;35462;45.048;7.666;2023-02-01T01:04:01;99315.94;;;8.76
49557;BMP280;35462;45.048;7.666;2023-02-01T01:19:17;99327.63;;;8.71
49557;BMP280;35462;45.048;7.666;2023-02-01T01:34:33;99328.66;;;8.53
49557;BMP280;35462;45.048;7.666;2023-02-01T01:49:49;99304.94;;;8.57
49557;BMP280;35462;45.048;7.666;2023-02-01T02:05:06;99312.41;;;8.41
49557;BMP280;35462;45.048;7.666;2023-02-01T02:36:22;99317.63;;;8.27
49557;BMP280;35462;45.048;7.666;2023-02-01T03:23:05;99309.19;;;8.07
49557;BMP280;35462;45.048;7.666;2023-02-01T03:38:30;99307.66;;;8.03
49557;BMP280;35462;45.048;7.666;2023-02-01T03:53:48;99303.78;;;7.90
49557;BMP280;35462;45.048;7.666;2023-02-01T04:09:07;99302.22;;;7.82
49557;BMP280;35462;45.048;7.666;2023-02-01T04:24:22;99319.88;;;7.78
49557;BMP280;35462;45.048;7.666;2023-02-01T04:39:40;99339.66;;;7.58
49557;BMP280;35462;45.048;7.666;2023-02-01T04:54:56;99322.94;;;7.40
49557;BMP280;35462;45.048;7.666;2023-02-01T05:10:12;99319.56;;;7.40
49557;BMP280;35462;45.048;7.666;2023-02-01T05:25:29;99331.81;;;7.25
49557;BMP280;35462;45.048;7.666;2023-02-01T05:40:44;99342.09;;;7.01
49557;BMP280;35462;45.048;7.666;2023-02-01T05:56:05;99340.66;;;7.07
49557;BMP280;35462;45.048;7.666;2023-02-01T06:11:21;99335.66;;;6.98
49557;BMP280;35462;45.048;7.666;2023-02-01T06:26:36;99349.66;;;6.76
49557;BMP280;35462;45.048;7.666;2023-02-01T06:41:54;99356.38;;;6.70
49557;BMP280;35462;45.048;7.666;2023-02-01T06:57:10;99360.69;;;6.59
49557;BMP280;35462;45.048;7.666;2023-02-01T07:12:27;99352.50;;;6.64
49557;BMP280;35462;45.048;7.666;2023-02-01T07:27:42;99363.25;;;6.52
49557;BMP280;35462;45.048;7.666;2023-02-01T07:42:58;99354.91;;;6.76
49557;BMP280;35462;45.048;7.666;2023-02-01T07:58:15;99353.97;;;6.91
49557;BMP280;35462;45.048;7.666;2023-02-01T08:13:31;99344.47;;;7.13
49557;BMP280;35462;45.048;7.666;2023-02-01T08:28:51;99357.44;;;7.68
49557;BMP280;35462;45.048;7.666;2023-02-01T08:44:10;99371.38;;;8.12
49557;BMP280;35462;45.048;7.666;2023-02-01T08:59:27;99378.03;;;8.53
49557;BMP280;35462;45.048;7.666;2023-02-01T09:14:44;99360.81;;;8.72
49557;BMP280;35462;45.048;7.666;2023-02-01T09:30:01;99365.88;;;9.12
49557;BMP280;35462;45.048;7.666;2023-02-01T09:45:34;99330.84;;;9.36
49557;BMP280;35462;45.048;7.666;2023-02-01T10:00:55;99334.97;;;9.93
49557;BMP280;35462;45.048;7.666;2023-02-01T10:31:51;99336.78;;;10.45
49557;BMP280;35462;45.048;7.666;2023-02-01T10:47:10;99348.78;;;10.67
49557;BMP280;35462;45.048;7.666;2023-02-01T11:02:31;99355.88;;;10.90
49557;BMP280;35462;45.048;7.666;2023-02-01T11:17:49;99339.09;;;11.14
49557;BMP280;35462;45.048;7.666;2023-02-01T11:33:13;99326.66;;;11.55
49557;BMP280;35462;45.048;7.666;2023-02-01T11:48:32;99307.84;;;11.83
49557;BMP280;35462;45.048;7.666;2023-02-01T12:35:20;99244.34;;;12.59
49557;BMP280;35462;45.048;7.666;2023-02-01T12:50:46;99237.56;;;12.80
49557;BMP280;35462;45.048;7.666;2023-02-01T13:06:13;99225.13;;;13.00
49557;BMP280;35462;45.048;7.666;2023-02-01T13:21:34;99209.03;;;13.07
49557;BMP280;35462;45.048;7.666;2023-02-01T13:52:50;99214.25;;;13.14
49557;BMP280;35462;45.048;7.666;2023-02-01T14:08:11;99213.03;;;13.19
49557;BMP280;35462;45.048;7.666;2023-02-01T14:23:29;99192.75;;;13.28
49557;BMP280;35462;45.048;7.666;2023-02-01T14:38:49;99223.03;;;13.34
49557;BMP280;35462;45.048;7.666;2023-02-01T14:54:08;99219.47;;;13.41
49557;BMP280;35462;45.048;7.666;2023-02-01T15:09:30;99215.25;;;13.43
49557;BMP280;35462;45.048;7.666;2023-02-01T15:24:56;99224.72;;;13.44
49557;BMP280;35462;45.048;7.666;2023-02-01T15:55:36;99237.38;;;13.40
49557;BMP280;35462;45.048;7.666;2023-02-01T16:10:59;99239.44;;;13.29
49557;BMP280;35462;45.048;7.666;2023-02-01T16:26:17;99257.81;;;13.20
49557;BMP280;35462;45.048;7.666;2023-02-01T16:41:32;99259.94;;;13.09
49557;BMP280;35462;45.048;7.666;2023-02-01T16:56:49;99260.47;;;12.97
49557;BMP280;35462;45.048;7.666;2023-02-01T17:12:05;99270.53;;;12.86
49557;BMP280;35462;45.048;7.666;2023-02-01T17:27:21;99288.84;;;12.77
49557;BMP280;35462;45.048;7.666;2023-02-01T17:42:37;99298.53;;;12.64
49557;BMP280;35462;45.048;7.666;2023-02-01T17:57:53;99267.63;;;12.51
49557;BMP280;35462;45.048;7.666;2023-02-01T18:13:11;99248.03;;;12.38
49557;BMP280;35462;45.048;7.666;2023-02-01T18:28:27;99250.09;;;12.27
49557;BMP280;35462;45.048;7.666;2023-02-01T18:43:43;99251.38;;;12.16
49557;BMP280;35462;45.048;7.666;2023-02-01T18:58:59;99256.78;;;12.09
49557;BMP280;35462;45.048;7.666;2023-02-01T19:14:16;99261.47;;;11.94
49557;BMP280;35462;45.048;7.666;2023-02-01T19:29:32;99283.25;;;11.82
49557;BMP280;35462;45.048;7.666;2023-02-01T19:44:48;99300.56;;;11.50
49557;BMP280;35462;45.048;7.666;2023-02-01T20:00:06;99313.53;;;11.38
49557;BMP280;35462;45.048;7.666;2023-02-01T20:15:22;99325.38;;;11.30
49557;BMP280;35462;45.048;7.666;2023-02-01T20:30:44;99306.03;;;11.26
49557;BMP280;35462;45.048;7.666;2023-02-01T20:46:00;99300.81;;;11.22
49557;BMP280;35462;45.048;7.666;2023-02-01T21:01:16;99305.00;;;11.13
49557;BMP280;35462;45.048;7.666;2023-02-01T21:16:32;99307.75;;;11.02
49557;BMP280;35462;45.048;7.666;2023-02-01T21:31:48;99322.22;;;10.84
49557;BMP280;35462;45.048;7.666;2023-02-01T21:47:04;99323.81;;;10.71
49557;BMP280;35462;45.048;7.666;2023-02-01T22:02:22;99353.34;;;10.59
49557;BMP280;35462;45.048;7.666;2023-02-01T22:17:38;99355.63;;;10.54
49557;BMP280;35462;45.048;7.666;2023-02-01T22:32:54;99371.19;;;10.38
49557;BMP280;35462;45.048;7.666;2023-02-01T22:48:09;99364.81;;;10.32
49557;BMP280;35462;45.048;7.666;2023-02-01T23:03:25;99371.59;;;10.26
49557;BMP280;35462;45.048;7.666;2023-02-01T23:18:41;99354.59;;;10.13
49557;BMP280;35462;45.048;7.666;2023-02-01T23:33:58;99367.09;;;10.02
49557;BMP280;35462;45.048;7.666;2023-02-01T23:49:16;99367.88;;;9.95
